Meteghan, Canada
Current Conditions -  °F | °C
As of 10:00 PM on Friday 31 Oct 2014 (Local Time) from CYQI Reporting Station
Overcast Overcast  
Wind Chill: 45°   Ceiling: 10000
Heat Index: 48°   Visibility: 15mi
Dew Point: 45°   Wind: 8mph
Humidity: 87%   Direction: 60°ENE
Pressure: 30.02"   Gusts: NA
Location:  44.18°N, 66.15°W
Report Text: CYQI 010100Z 06007KT 15SM SCT045 OVC100 09/07 A3002 RMK SC4AC4 SLP168
Loading
Personal Weather Stations






























Interactive Weather Map
Tropical Storm Tracking
New forecast layout! Learn more

10-Day Weather Forecast

Advertisements
Track Severe Weather on mobile